sensor_id;sensor_type;location;lat;lon;timestamp;P1;durP1;ratioP1;P2;durP2;ratioP2
65375;SDS011;51976;47.332;9.404;2023-11-21T00:01:44;4.00;;;0.50;;
65375;SDS011;51976;47.332;9.404;2023-11-21T00:04:09;2.35;;;0.60;;
65375;SDS011;51976;47.332;9.404;2023-11-21T00:06:35;2.90;;;0.80;;
65375;SDS011;51976;47.332;9.404;2023-11-21T00:09:00;4.53;;;0.57;;
65375;SDS011;51976;47.332;9.404;2023-11-21T00:11:26;5.75;;;0.63;;
65375;SDS011;51976;47.332;9.404;2023-11-21T00:13:51;5.90;;;0.88;;
65375;SDS011;51976;47.332;9.404;2023-11-21T00:16:16;2.22;;;0.50;;
65375;SDS011;51976;47.332;9.404;2023-11-21T00:18:42;3.97;;;0.73;;
65375;SDS011;51976;47.332;9.404;2023-11-21T00:21:07;2.90;;;0.65;;
65375;SDS011;51976;47.332;9.404;2023-11-21T00:23:34;3.95;;;0.63;;
65375;SDS011;51976;47.332;9.404;2023-11-21T00:25:59;3.45;;;0.77;;
65375;SDS011;51976;47.332;9.404;2023-11-21T00:28:25;2.47;;;0.57;;
65375;SDS011;51976;47.332;9.404;2023-11-21T00:30:51;3.33;;;0.40;;
65375;SDS011;51976;47.332;9.404;2023-11-21T00:33:17;1.35;;;0.47;;
65375;SDS011;51976;47.332;9.404;2023-11-21T00:35:42;4.28;;;0.70;;
65375;SDS011;51976;47.332;9.404;2023-11-21T00:38:08;3.30;;;0.60;;
65375;SDS011;51976;47.332;9.404;2023-11-21T00:40:36;2.63;;;0.70;;
65375;SDS011;51976;47.332;9.404;2023-11-21T00:43:01;1.63;;;0.68;;
65375;SDS011;51976;47.332;9.404;2023-11-21T00:45:27;2.40;;;0.40;;
65375;SDS011;51976;47.332;9.404;2023-11-21T00:47:52;2.67;;;0.45;;
65375;SDS011;51976;47.332;9.404;2023-11-21T00:50:17;1.38;;;0.43;;
65375;SDS011;51976;47.332;9.404;2023-11-21T00:52:43;3.05;;;0.50;;
65375;SDS011;51976;47.332;9.404;2023-11-21T00:55:08;2.75;;;0.30;;
65375;SDS011;51976;47.332;9.404;2023-11-21T00:57:35;2.33;;;0.28;;
65375;SDS011;51976;47.332;9.404;2023-11-21T01:00:00;3.17;;;0.32;;
65375;SDS011;51976;47.332;9.404;2023-11-21T01:02:26;2.38;;;0.35;;
65375;SDS011;51976;47.332;9.404;2023-11-21T01:04:51;2.67;;;0.43;;
65375;SDS011;51976;47.332;9.404;2023-11-21T01:07:17;1.80;;;0.60;;
65375;SDS011;51976;47.332;9.404;2023-11-21T01:09:45;5.28;;;0.70;;
65375;SDS011;51976;47.332;9.404;2023-11-21T01:12:11;4.20;;;0.43;;
65375;SDS011;51976;47.332;9.404;2023-11-21T01:14:36;2.60;;;0.40;;
65375;SDS011;51976;47.332;9.404;2023-11-21T01:17:01;3.42;;;0.45;;
65375;SDS011;51976;47.332;9.404;2023-11-21T01:19:29;1.23;;;0.22;;
65375;SDS011;51976;47.332;9.404;2023-11-21T01:21:54;2.70;;;0.30;;
65375;SDS011;51976;47.332;9.404;2023-11-21T01:24:19;3.17;;;0.60;;
65375;SDS011;51976;47.332;9.404;2023-11-21T01:26:45;1.77;;;0.32;;
65375;SDS011;51976;47.332;9.404;2023-11-21T01:29:11;2.35;;;0.45;;
65375;SDS011;51976;47.332;9.404;2023-11-21T01:31:37;2.90;;;0.45;;
65375;SDS011;51976;47.332;9.404;2023-11-21T01:34:02;2.50;;;0.68;;
65375;SDS011;51976;47.332;9.404;2023-11-21T01:36:31;2.45;;;0.55;;
65375;SDS011;51976;47.332;9.404;2023-11-21T01:38:57;3.55;;;0.52;;
65375;SDS011;51976;47.332;9.404;2023-11-21T01:41:24;3.92;;;0.30;;
65375;SDS011;51976;47.332;9.404;2023-11-21T01:43:52;3.47;;;0.50;;
65375;SDS011;51976;47.332;9.404;2023-11-21T01:46:18;4.68;;;0.60;;
65375;SDS011;51976;47.332;9.404;2023-11-21T01:48:45;3.17;;;0.50;;
65375;SDS011;51976;47.332;9.404;2023-11-21T01:51:11;1.70;;;0.30;;
65375;SDS011;51976;47.332;9.404;2023-11-21T01:53:36;1.80;;;0.50;;
65375;SDS011;51976;47.332;9.404;2023-11-21T01:56:02;2.72;;;0.98;;
65375;SDS011;51976;47.332;9.404;2023-11-21T01:58:28;2.90;;;0.50;;
65375;SDS011;51976;47.332;9.404;2023-11-21T02:00:54;5.85;;;0.77;;
65375;SDS011;51976;47.332;9.404;2023-11-21T02:03:20;2.70;;;0.32;;
65375;SDS011;51976;47.332;9.404;2023-11-21T02:05:45;2.97;;;0.40;;
65375;SDS011;51976;47.332;9.404;2023-11-21T02:08:11;4.15;;;0.52;;
65375;SDS011;51976;47.332;9.404;2023-11-21T02:10:36;1.75;;;0.43;;
65375;SDS011;51976;47.332;9.404;2023-11-21T02:13:02;4.80;;;0.70;;
65375;SDS011;51976;47.332;9.404;2023-11-21T02:15:28;4.68;;;0.60;;
65375;SDS011;51976;47.332;9.404;2023-11-21T02:17:54;2.95;;;0.57;;
65375;SDS011;51976;47.332;9.404;2023-11-21T02:20:20;1.23;;;0.50;;
65375;SDS011;51976;47.332;9.404;2023-11-21T02:22:50;3.92;;;0.80;;
65375;SDS011;51976;47.332;9.404;2023-11-21T02:25:29;4.35;;;0.52;;
65375;SDS011;51976;47.332;9.404;2023-11-21T02:27:57;3.67;;;1.13;;
65375;SDS011;51976;47.332;9.404;2023-11-21T02:30:24;2.42;;;0.45;;
65375;SDS011;51976;47.332;9.404;2023-11-21T02:32:57;1.45;;;0.45;;
65375;SDS011;51976;47.332;9.404;2023-11-21T02:35:23;3.88;;;0.55;;
65375;SDS011;51976;47.332;9.404;2023-11-21T02:37:51;1.65;;;0.40;;
65375;SDS011;51976;47.332;9.404;2023-11-21T02:40:16;3.20;;;0.50;;
65375;SDS011;51976;47.332;9.404;2023-11-21T02:42:43;1.73;;;0.40;;
65375;SDS011;51976;47.332;9.404;2023-11-21T02:45:09;3.15;;;0.55;;
65375;SDS011;51976;47.332;9.404;2023-11-21T02:47:37;2.58;;;0.40;;
65375;SDS011;51976;47.332;9.404;2023-11-21T02:50:03;2.35;;;0.43;;
65375;SDS011;51976;47.332;9.404;2023-11-21T02:52:29;1.27;;;0.28;;
65375;SDS011;51976;47.332;9.404;2023-11-21T02:54:54;1.05;;;0.55;;
65375;SDS011;51976;47.332;9.404;2023-11-21T02:57:20;1.50;;;0.28;;
65375;SDS011;51976;47.332;9.404;2023-11-21T02:59:45;2.10;;;0.40;;
65375;SDS011;51976;47.332;9.404;2023-11-21T03:02:10;2.92;;;0.40;;
65375;SDS011;51976;47.332;9.404;2023-11-21T03:04:36;2.08;;;0.40;;
65375;SDS011;51976;47.332;9.404;2023-11-21T03:07:01;2.28;;;0.60;;
65375;SDS011;51976;47.332;9.404;2023-11-21T03:09:26;3.00;;;0.57;;
65375;SDS011;51976;47.332;9.404;2023-11-21T03:11:52;2.22;;;0.40;;
65375;SDS011;51976;47.332;9.404;2023-11-21T03:14:18;3.20;;;0.90;;
65375;SDS011;51976;47.332;9.404;2023-11-21T03:16:44;3.38;;;0.40;;
65375;SDS011;51976;47.332;9.404;2023-11-21T03:19:10;1.80;;;0.35;;
65375;SDS011;51976;47.332;9.404;2023-11-21T03:21:36;1.55;;;0.40;;
65375;SDS011;51976;47.332;9.404;2023-11-21T03:24:01;1.20;;;0.45;;
65375;SDS011;51976;47.332;9.404;2023-11-21T03:26:26;2.35;;;0.73;;
65375;SDS011;51976;47.332;9.404;2023-11-21T03:28:52;1.95;;;0.40;;
65375;SDS011;51976;47.332;9.404;2023-11-21T03:31:18;1.85;;;0.40;;
65375;SDS011;51976;47.332;9.404;2023-11-21T03:33:44;3.92;;;0.43;;
65375;SDS011;51976;47.332;9.404;2023-11-21T03:36:10;3.05;;;0.90;;
65375;SDS011;51976;47.332;9.404;2023-11-21T03:38:36;2.53;;;0.40;;
65375;SDS011;51976;47.332;9.404;2023-11-21T03:41:01;1.75;;;0.30;;
65375;SDS011;51976;47.332;9.404;2023-11-21T03:43:27;2.17;;;0.50;;
65375;SDS011;51976;47.332;9.404;2023-11-21T03:45:52;2.92;;;0.50;;
65375;SDS011;51976;47.332;9.404;2023-11-21T03:48:18;5.20;;;0.70;;
65375;SDS011;51976;47.332;9.404;2023-11-21T03:50:43;2.15;;;0.43;;
65375;SDS011;51976;47.332;9.404;2023-11-21T03:53:08;3.83;;;0.47;;
65375;SDS011;51976;47.332;9.404;2023-11-21T03:55:34;1.65;;;0.55;;
65375;SDS011;51976;47.332;9.404;2023-11-21T03:57:59;3.15;;;0.40;;
65375;SDS011;51976;47.332;9.404;2023-11-21T04:00:25;0.70;;;0.30;;
65375;SDS011;51976;47.332;9.404;2023-11-21T04:02:53;2.88;;;0.40;;
65375;SDS011;51976;47.332;9.404;2023-11-21T04:05:19;1.63;;;0.52;;
65375;SDS011;51976;47.332;9.404;2023-11-21T04:07:46;4.57;;;0.85;;
65375;SDS011;51976;47.332;9.404;2023-11-21T04:10:12;3.58;;;0.95;;
65375;SDS011;51976;47.332;9.404;2023-11-21T04:12:38;3.97;;;0.73;;
65375;SDS011;51976;47.332;9.404;2023-11-21T04:15:03;3.00;;;0.70;;
65375;SDS011;51976;47.332;9.404;2023-11-21T04:17:29;0.93;;;0.40;;
65375;SDS011;51976;47.332;9.404;2023-11-21T04:19:54;3.80;;;0.55;;
65375;SDS011;51976;47.332;9.404;2023-11-21T04:22:20;2.05;;;0.75;;
65375;SDS011;51976;47.332;9.404;2023-11-21T04:24:45;3.83;;;0.93;;
65375;SDS011;51976;47.332;9.404;2023-11-21T04:27:11;1.75;;;0.63;;
65375;SDS011;51976;47.332;9.404;2023-11-21T04:29:38;2.45;;;0.43;;
65375;SDS011;51976;47.332;9.404;2023-11-21T04:32:03;5.20;;;1.35;;
65375;SDS011;51976;47.332;9.404;2023-11-21T04:34:29;2.28;;;0.52;;
65375;SDS011;51976;47.332;9.404;2023-11-21T04:36:57;4.82;;;0.55;;
65375;SDS011;51976;47.332;9.404;2023-11-21T04:39:22;1.63;;;0.50;;
65375;SDS011;51976;47.332;9.404;2023-11-21T04:41:48;1.92;;;0.73;;
65375;SDS011;51976;47.332;9.404;2023-11-21T04:44:14;3.38;;;0.80;;
65375;SDS011;51976;47.332;9.404;2023-11-21T04:46:41;2.20;;;0.60;;
65375;SDS011;51976;47.332;9.404;2023-11-21T04:49:06;1.58;;;0.60;;
65375;SDS011;51976;47.332;9.404;2023-11-21T04:51:32;1.00;;;0.50;;
65375;SDS011;51976;47.332;9.404;2023-11-21T04:53:57;2.33;;;0.60;;
65375;SDS011;51976;47.332;9.404;2023-11-21T04:56:23;2.95;;;0.60;;
65375;SDS011;51976;47.332;9.404;2023-11-21T04:58:48;4.25;;;0.70;;
65375;SDS011;51976;47.332;9.404;2023-11-21T05:01:13;2.35;;;0.82;;
65375;SDS011;51976;47.332;9.404;2023-11-21T05:03:39;2.83;;;0.90;;
65375;SDS011;51976;47.332;9.404;2023-11-21T05:06:04;2.13;;;0.60;;
65375;SDS011;51976;47.332;9.404;2023-11-21T05:08:30;1.92;;;0.63;;
65375;SDS011;51976;47.332;9.404;2023-11-21T05:10:56;1.60;;;0.60;;
65375;SDS011;51976;47.332;9.404;2023-11-21T05:13:22;3.10;;;1.13;;
65375;SDS011;51976;47.332;9.404;2023-11-21T05:15:52;3.80;;;1.15;;
65375;SDS011;51976;47.332;9.404;2023-11-21T05:18:18;4.38;;;1.23;;
65375;SDS011;51976;47.332;9.404;2023-11-21T05:20:44;5.13;;;1.50;;
65375;SDS011;51976;47.332;9.404;2023-11-21T05:23:09;4.03;;;1.33;;
65375;SDS011;51976;47.332;9.404;2023-11-21T05:25:34;1.77;;;0.80;;
65375;SDS011;51976;47.332;9.404;2023-11-21T05:28:00;1.50;;;0.85;;
65375;SDS011;51976;47.332;9.404;2023-11-21T05:30:26;3.40;;;1.00;;
65375;SDS011;51976;47.332;9.404;2023-11-21T05:32:52;0.90;;;0.50;;
65375;SDS011;51976;47.332;9.404;2023-11-21T05:35:18;6.60;;;1.27;;
65375;SDS011;51976;47.332;9.404;2023-11-21T05:37:44;2.05;;;0.75;;
65375;SDS011;51976;47.332;9.404;2023-11-21T05:40:10;3.78;;;0.82;;
65375;SDS011;51976;47.332;9.404;2023-11-21T05:42:38;3.38;;;1.00;;
65375;SDS011;51976;47.332;9.404;2023-11-21T05:45:04;4.88;;;0.75;;
65375;SDS011;51976;47.332;9.404;2023-11-21T05:47:36;2.72;;;0.60;;
65375;SDS011;51976;47.332;9.404;2023-11-21T05:50:02;1.67;;;0.77;;
65375;SDS011;51976;47.332;9.404;2023-11-21T05:52:29;6.22;;;0.85;;
65375;SDS011;51976;47.332;9.404;2023-11-21T05:54:54;2.67;;;0.93;;
65375;SDS011;51976;47.332;9.404;2023-11-21T05:57:19;3.95;;;0.70;;
65375;SDS011;51976;47.332;9.404;2023-11-21T05:59:45;1.33;;;0.40;;
65375;SDS011;51976;47.332;9.404;2023-11-21T06:02:11;2.05;;;0.60;;
65375;SDS011;51976;47.332;9.404;2023-11-21T06:04:36;0.80;;;0.40;;
65375;SDS011;51976;47.332;9.404;2023-11-21T06:07:02;1.17;;;0.20;;
65375;SDS011;51976;47.332;9.404;2023-11-21T06:09:27;0.95;;;0.45;;
65375;SDS011;51976;47.332;9.404;2023-11-21T06:11:53;1.58;;;0.98;;
65375;SDS011;51976;47.332;9.404;2023-11-21T06:14:18;1.80;;;0.60;;
65375;SDS011;51976;47.332;9.404;2023-11-21T06:16:44;1.83;;;0.70;;
65375;SDS011;51976;47.332;9.404;2023-11-21T06:19:10;2.78;;;0.80;;
65375;SDS011;51976;47.332;9.404;2023-11-21T06:21:35;2.15;;;0.77;;
65375;SDS011;51976;47.332;9.404;2023-11-21T06:24:01;1.80;;;0.80;;
65375;SDS011;51976;47.332;9.404;2023-11-21T06:26:26;3.67;;;1.00;;
65375;SDS011;51976;47.332;9.404;2023-11-21T06:28:52;2.08;;;0.52;;
65375;SDS011;51976;47.332;9.404;2023-11-21T06:31:18;3.65;;;0.80;;
65375;SDS011;51976;47.332;9.404;2023-11-21T06:33:44;1.10;;;0.32;;
65375;SDS011;51976;47.332;9.404;2023-11-21T06:36:09;3.45;;;0.52;;
65375;SDS011;51976;47.332;9.404;2023-11-21T06:38:36;2.55;;;0.80;;
65375;SDS011;51976;47.332;9.404;2023-11-21T06:41:02;4.55;;;0.80;;
65375;SDS011;51976;47.332;9.404;2023-11-21T06:43:29;2.53;;;0.50;;
65375;SDS011;51976;47.332;9.404;2023-11-21T06:45:56;0.70;;;0.40;;
65375;SDS011;51976;47.332;9.404;2023-11-21T06:48:21;2.17;;;0.30;;
65375;SDS011;51976;47.332;9.404;2023-11-21T06:50:50;4.07;;;2.10;;
65375;SDS011;51976;47.332;9.404;2023-11-21T06:53:17;2.35;;;0.98;;
65375;SDS011;51976;47.332;9.404;2023-11-21T06:55:42;1.10;;;0.50;;
65375;SDS011;51976;47.332;9.404;2023-11-21T06:58:07;1.80;;;0.70;;
65375;SDS011;51976;47.332;9.404;2023-11-21T07:00:33;2.33;;;1.20;;
65375;SDS011;51976;47.332;9.404;2023-11-21T07:02:59;2.92;;;1.60;;
65375;SDS011;51976;47.332;9.404;2023-11-21T07:05:25;2.95;;;1.48;;
65375;SDS011;51976;47.332;9.404;2023-11-21T07:07:50;1.27;;;0.77;;
65375;SDS011;51976;47.332;9.404;2023-11-21T07:10:15;1.48;;;0.50;;
65375;SDS011;51976;47.332;9.404;2023-11-21T07:12:41;0.75;;;0.30;;
65375;SDS011;51976;47.332;9.404;2023-11-21T07:15:07;0.25;;;0.13;;
65375;SDS011;51976;47.332;9.404;2023-11-21T07:17:34;0.28;;;0.17;;
65375;SDS011;51976;47.332;9.404;2023-11-21T07:20:01;0.38;;;0.17;;
65375;SDS011;51976;47.332;9.404;2023-11-21T07:22:26;0.77;;;0.20;;
65375;SDS011;51976;47.332;9.404;2023-11-21T07:24:52;1.80;;;0.20;;
65375;SDS011;51976;47.332;9.404;2023-11-21T07:27:17;1.52;;;0.28;;
65375;SDS011;51976;47.332;9.404;2023-11-21T07:29:43;0.55;;;0.15;;
65375;SDS011;51976;47.332;9.404;2023-11-21T07:32:09;0.47;;;0.10;;
65375;SDS011;51976;47.332;9.404;2023-11-21T07:34:34;0.45;;;0.20;;
65375;SDS011;51976;47.332;9.404;2023-11-21T07:37:00;0.00;;;0.00;;
65375;SDS011;51976;47.332;9.404;2023-11-21T07:39:26;0.90;;;0.20;;
65375;SDS011;51976;47.332;9.404;2023-11-21T07:41:52;1.27;;;0.20;;
65375;SDS011;51976;47.332;9.404;2023-11-21T07:44:17;1.10;;;0.40;;
65375;SDS011;51976;47.332;9.404;2023-11-21T07:46:43;2.30;;;0.70;;
65375;SDS011;51976;47.332;9.404;2023-11-21T07:49:09;2.80;;;1.20;;
65375;SDS011;51976;47.332;9.404;2023-11-21T07:51:34;1.90;;;0.90;;
65375;SDS011;51976;47.332;9.404;2023-11-21T07:54:00;3.20;;;1.40;;
65375;SDS011;51976;47.332;9.404;2023-11-21T07:56:25;2.10;;;1.10;;
65375;SDS011;51976;47.332;9.404;2023-11-21T07:58:51;2.20;;;0.60;;
65375;SDS011;51976;47.332;9.404;2023-11-21T08:01:17;2.72;;;1.40;;
65375;SDS011;51976;47.332;9.404;2023-11-21T08:03:42;2.92;;;1.42;;
65375;SDS011;51976;47.332;9.404;2023-11-21T08:06:09;4.00;;;1.63;;
65375;SDS011;51976;47.332;9.404;2023-11-21T08:08:34;4.10;;;1.17;;
65375;SDS011;51976;47.332;9.404;2023-11-21T08:11:00;3.80;;;1.42;;
65375;SDS011;51976;47.332;9.404;2023-11-21T08:13:27;5.05;;;1.45;;
65375;SDS011;51976;47.332;9.404;2023-11-21T08:15:55;3.38;;;1.15;;
65375;SDS011;51976;47.332;9.404;2023-11-21T08:18:23;3.22;;;1.52;;
65375;SDS011;51976;47.332;9.404;2023-11-21T08:20:49;1.08;;;0.40;;
65375;SDS011;51976;47.332;9.404;2023-11-21T08:23:15;1.00;;;0.50;;
65375;SDS011;51976;47.332;9.404;2023-11-21T08:25:43;2.45;;;1.00;;
65375;SDS011;51976;47.332;9.404;2023-11-21T08:28:09;2.60;;;0.63;;
65375;SDS011;51976;47.332;9.404;2023-11-21T08:30:35;1.50;;;0.70;;
65375;SDS011;51976;47.332;9.404;2023-11-21T08:33:00;1.42;;;0.60;;
65375;SDS011;51976;47.332;9.404;2023-11-21T08:35:26;1.13;;;0.50;;
65375;SDS011;51976;47.332;9.404;2023-11-21T08:37:51;1.20;;;0.55;;
65375;SDS011;51976;47.332;9.404;2023-11-21T08:40:20;1.20;;;0.47;;
65375;SDS011;51976;47.332;9.404;2023-11-21T08:42:46;0.68;;;0.30;;
65375;SDS011;51976;47.332;9.404;2023-11-21T08:45:13;6.93;;;3.05;;
65375;SDS011;51976;47.332;9.404;2023-11-21T08:47:39;5.32;;;2.88;;
65375;SDS011;51976;47.332;9.404;2023-11-21T08:50:05;7.93;;;3.38;;
65375;SDS011;51976;47.332;9.404;2023-11-21T08:52:32;4.20;;;2.22;;
65375;SDS011;51976;47.332;9.404;2023-11-21T08:55:02;10.82;;;5.47;;
65375;SDS011;51976;47.332;9.404;2023-11-21T08:57:33;5.88;;;3.33;;
65375;SDS011;51976;47.332;9.404;2023-11-21T08:59:58;5.95;;;3.25;;
65375;SDS011;51976;47.332;9.404;2023-11-21T09:02:27;7.45;;;3.90;;
65375;SDS011;51976;47.332;9.404;2023-11-21T09:04:52;3.00;;;1.70;;
65375;SDS011;51976;47.332;9.404;2023-11-21T09:07:18;3.47;;;1.85;;
65375;SDS011;51976;47.332;9.404;2023-11-21T09:09:45;4.82;;;2.70;;
65375;SDS011;51976;47.332;9.404;2023-11-21T09:12:11;3.88;;;2.55;;
65375;SDS011;51976;47.332;9.404;2023-11-21T09:14:38;3.05;;;1.60;;
65375;SDS011;51976;47.332;9.404;2023-11-21T09:17:04;4.25;;;1.92;;
65375;SDS011;51976;47.332;9.404;2023-11-21T09:19:35;2.60;;;1.45;;
65375;SDS011;51976;47.332;9.404;2023-11-21T09:22:04;1.45;;;0.55;;
65375;SDS011;51976;47.332;9.404;2023-11-21T09:24:33;2.00;;;0.93;;
65375;SDS011;51976;47.332;9.404;2023-11-21T09:26:59;3.42;;;1.90;;
65375;SDS011;51976;47.332;9.404;2023-11-21T09:29:25;3.38;;;1.67;;
65375;SDS011;51976;47.332;9.404;2023-11-21T09:31:51;1.52;;;0.80;;
65375;SDS011;51976;47.332;9.404;2023-11-21T09:34:16;1.63;;;0.65;;
65375;SDS011;51976;47.332;9.404;2023-11-21T09:36:45;2.30;;;0.95;;
65375;SDS011;51976;47.332;9.404;2023-11-21T09:39:11;0.68;;;0.13;;
65375;SDS011;51976;47.332;9.404;2023-11-21T09:41:42;0.60;;;0.20;;
65375;SDS011;51976;47.332;9.404;2023-11-21T09:44:11;0.68;;;0.22;;
65375;SDS011;51976;47.332;9.404;2023-11-21T09:46:41;1.60;;;0.32;;
65375;SDS011;51976;47.332;9.404;2023-11-21T09:49:08;1.30;;;0.30;;
65375;SDS011;51976;47.332;9.404;2023-11-21T09:51:39;1.80;;;0.70;;
65375;SDS011;51976;47.332;9.404;2023-11-21T09:54:07;2.05;;;0.88;;
65375;SDS011;51976;47.332;9.404;2023-11-21T09:56:37;1.73;;;0.60;;
65375;SDS011;51976;47.332;9.404;2023-11-21T09:59:03;3.45;;;0.82;;
65375;SDS011;51976;47.332;9.404;2023-11-21T10:01:32;1.10;;;0.50;;
65375;SDS011;51976;47.332;9.404;2023-11-21T10:04:00;1.58;;;0.38;;
65375;SDS011;51976;47.332;9.404;2023-11-21T10:06:26;0.95;;;0.43;;
65375;SDS011;51976;47.332;9.404;2023-11-21T10:08:53;2.00;;;0.50;;
65375;SDS011;51976;47.332;9.404;2023-11-21T10:11:21;0.45;;;0.20;;
65375;SDS011;51976;47.332;9.404;2023-11-21T10:13:50;0.95;;;0.20;;
65375;SDS011;51976;47.332;9.404;2023-11-21T10:16:19;0.77;;;0.35;;
65375;SDS011;51976;47.332;9.404;2023-11-21T10:18:46;0.28;;;0.05;;
65375;SDS011;51976;47.332;9.404;2023-11-21T10:21:13;0.38;;;0.10;;
65375;SDS011;51976;47.332;9.404;2023-11-21T10:23:39;1.02;;;0.10;;
65375;SDS011;51976;47.332;9.404;2023-11-21T10:26:04;0.20;;;0.10;;
65375;SDS011;51976;47.332;9.404;2023-11-21T10:28:35;0.20;;;0.10;;
65375;SDS011;51976;47.332;9.404;2023-11-21T10:31:02;0.57;;;0.15;;
65375;SDS011;51976;47.332;9.404;2023-11-21T10:33:28;7.70;;;0.20;;
65375;SDS011;51976;47.332;9.404;2023-11-21T10:35:56;6.55;;;0.30;;
65375;SDS011;51976;47.332;9.404;2023-11-21T10:38:21;1.08;;;0.10;;
65375;SDS011;51976;47.332;9.404;2023-11-21T10:40:49;1.27;;;0.10;;
65375;SDS011;51976;47.332;9.404;2023-11-21T10:43:15;0.70;;;0.10;;
65375;SDS011;51976;47.332;9.404;2023-11-21T10:45:41;0.40;;;0.10;;
65375;SDS011;51976;47.332;9.404;2023-11-21T10:48:09;0.50;;;0.50;;
65375;SDS011;51976;47.332;9.404;2023-11-21T10:50:40;1.75;;;0.17;;
65375;SDS011;51976;47.332;9.404;2023-11-21T10:53:06;0.05;;;0.00;;
65375;SDS011;51976;47.332;9.404;2023-11-21T10:55:32;0.40;;;0.20;;
65375;SDS011;51976;47.332;9.404;2023-11-21T10:58:01;0.70;;;0.30;;
65375;SDS011;51976;47.332;9.404;2023-11-21T11:00:29;0.65;;;0.30;;
65375;SDS011;51976;47.332;9.404;2023-11-21T11:02:56;1.17;;;0.57;;
65375;SDS011;51976;47.332;9.404;2023-11-21T11:05:22;2.58;;;1.05;;
65375;SDS011;51976;47.332;9.404;2023-11-21T11:07:52;2.40;;;0.57;;
65375;SDS011;51976;47.332;9.404;2023-11-21T11:10:29;2.15;;;1.30;;
65375;SDS011;51976;47.332;9.404;2023-11-21T11:12:55;1.40;;;0.73;;
65375;SDS011;51976;47.332;9.404;2023-11-21T11:15:25;2.72;;;0.90;;
65375;SDS011;51976;47.332;9.404;2023-11-21T11:17:51;2.95;;;0.90;;
65375;SDS011;51976;47.332;9.404;2023-11-21T11:20:21;2.30;;;1.10;;
65375;SDS011;51976;47.332;9.404;2023-11-21T11:25:59;1.42;;;0.55;;
65375;SDS011;51976;47.332;9.404;2023-11-21T11:28:47;0.70;;;0.40;;
65375;SDS011;51976;47.332;9.404;2023-11-21T11:31:23;1.67;;;0.68;;
65375;SDS011;51976;47.332;9.404;2023-11-21T11:34:35;0.77;;;0.30;;
65375;SDS011;51976;47.332;9.404;2023-11-21T11:37:02;0.82;;;0.47;;
65375;SDS011;51976;47.332;9.404;2023-11-21T11:39:36;2.00;;;1.00;;
65375;SDS011;51976;47.332;9.404;2023-11-21T11:42:03;3.92;;;1.55;;
65375;SDS011;51976;47.332;9.404;2023-11-21T11:47:27;10.32;;;5.13;;
65375;SDS011;51976;47.332;9.404;2023-11-21T11:49:58;4.95;;;2.53;;
65375;SDS011;51976;47.332;9.404;2023-11-21T11:52:48;3.95;;;2.38;;
65375;SDS011;51976;47.332;9.404;2023-11-21T11:55:16;9.10;;;4.03;;
65375;SDS011;51976;47.332;9.404;2023-11-21T11:57:45;7.80;;;4.10;;
65375;SDS011;51976;47.332;9.404;2023-11-21T12:00:13;6.10;;;2.97;;
65375;SDS011;51976;47.332;9.404;2023-11-21T12:02:48;7.50;;;4.05;;
65375;SDS011;51976;47.332;9.404;2023-11-21T12:05:15;4.50;;;2.20;;
65375;SDS011;51976;47.332;9.404;2023-11-21T12:07:45;4.80;;;2.83;;
65375;SDS011;51976;47.332;9.404;2023-11-21T12:10:13;3.40;;;2.15;;
65375;SDS011;51976;47.332;9.404;2023-11-21T12:12:44;3.25;;;1.90;;
65375;SDS011;51976;47.332;9.404;2023-11-21T12:15:11;7.68;;;3.25;;
65375;SDS011;51976;47.332;9.404;2023-11-21T12:17:38;2.15;;;0.93;;
65375;SDS011;51976;47.332;9.404;2023-11-21T12:20:04;3.75;;;0.82;;
65375;SDS011;51976;47.332;9.404;2023-11-21T12:22:39;3.13;;;1.50;;
65375;SDS011;51976;47.332;9.404;2023-11-21T12:25:14;3.67;;;1.83;;
65375;SDS011;51976;47.332;9.404;2023-11-21T12:27:43;2.63;;;1.20;;
65375;SDS011;51976;47.332;9.404;2023-11-21T12:30:10;4.20;;;1.75;;
65375;SDS011;51976;47.332;9.404;2023-11-21T12:32:39;2.30;;;1.25;;
65375;SDS011;51976;47.332;9.404;2023-11-21T12:35:06;2.30;;;0.80;;
65375;SDS011;51976;47.332;9.404;2023-11-21T12:37:33;1.23;;;0.40;;
65375;SDS011;51976;47.332;9.404;2023-11-21T12:39:59;2.95;;;0.80;;
65375;SDS011;51976;47.332;9.404;2023-11-21T12:42:24;1.27;;;0.60;;
65375;SDS011;51976;47.332;9.404;2023-11-21T12:45:06;3.80;;;0.80;;
65375;SDS011;51976;47.332;9.404;2023-11-21T12:47:51;3.58;;;0.80;;
65375;SDS011;51976;47.332;9.404;2023-11-21T12:50:25;0.80;;;0.30;;
65375;SDS011;51976;47.332;9.404;2023-11-21T12:53:00;0.50;;;0.30;;
65375;SDS011;51976;47.332;9.404;2023-11-21T12:55:31;0.47;;;0.20;;
65375;SDS011;51976;47.332;9.404;2023-11-21T12:57:58;1.23;;;0.50;;
65375;SDS011;51976;47.332;9.404;2023-11-21T13:00:38;1.38;;;0.20;;
65375;SDS011;51976;47.332;9.404;2023-11-21T13:03:05;0.47;;;0.20;;
65375;SDS011;51976;47.332;9.404;2023-11-21T13:05:33;0.77;;;0.30;;
65375;SDS011;51976;47.332;9.404;2023-11-21T13:08:01;0.73;;;0.30;;
65375;SDS011;51976;47.332;9.404;2023-11-21T13:10:30;0.52;;;0.30;;
65375;SDS011;51976;47.332;9.404;2023-11-21T13:12:59;0.90;;;0.20;;
65375;SDS011;51976;47.332;9.404;2023-11-21T13:15:40;0.10;;;0.10;;
65375;SDS011;51976;47.332;9.404;2023-11-21T13:18:13;0.40;;;0.10;;
65375;SDS011;51976;47.332;9.404;2023-11-21T13:20:39;0.20;;;0.10;;
65375;SDS011;51976;47.332;9.404;2023-11-21T13:23:08;0.10;;;0.05;;
65375;SDS011;51976;47.332;9.404;2023-11-21T13:25:37;0.30;;;0.10;;
65375;SDS011;51976;47.332;9.404;2023-11-21T13:28:04;0.45;;;0.20;;
65375;SDS011;51976;47.332;9.404;2023-11-21T13:30:30;0.40;;;0.10;;
65375;SDS011;51976;47.332;9.404;2023-11-21T13:32:59;1.83;;;0.70;;
65375;SDS011;51976;47.332;9.404;2023-11-21T13:35:31;1.48;;;0.40;;
65375;SDS011;51976;47.332;9.404;2023-11-21T13:38:06;0.38;;;0.10;;
65375;SDS011;51976;47.332;9.404;2023-11-21T13:40:34;0.20;;;0.08;;
65375;SDS011;51976;47.332;9.404;2023-11-21T13:43:07;0.08;;;0.00;;
65375;SDS011;51976;47.332;9.404;2023-11-21T13:45:36;0.20;;;0.10;;
65375;SDS011;51976;47.332;9.404;2023-11-21T13:48:04;0.40;;;0.08;;
65375;SDS011;51976;47.332;9.404;2023-11-21T13:50:33;0.10;;;0.05;;
65375;SDS011;51976;47.332;9.404;2023-11-21T13:53:23;0.47;;;0.25;;
65375;SDS011;51976;47.332;9.404;2023-11-21T13:55:49;0.85;;;0.30;;
65375;SDS011;51976;47.332;9.404;2023-11-21T13:58:16;0.70;;;0.22;;
65375;SDS011;51976;47.332;9.404;2023-11-21T14:00:48;5.38;;;2.90;;
65375;SDS011;51976;47.332;9.404;2023-11-21T14:03:21;5.60;;;2.70;;
65375;SDS011;51976;47.332;9.404;2023-11-21T14:05:50;4.70;;;1.80;;
65375;SDS011;51976;47.332;9.404;2023-11-21T14:08:19;2.90;;;1.63;;
65375;SDS011;51976;47.332;9.404;2023-11-21T14:10:49;3.70;;;1.52;;
65375;SDS011;51976;47.332;9.404;2023-11-21T14:13:20;3.30;;;1.10;;
65375;SDS011;51976;47.332;9.404;2023-11-21T14:15:48;1.60;;;0.68;;
65375;SDS011;51976;47.332;9.404;2023-11-21T14:18:16;1.67;;;1.33;;
65375;SDS011;51976;47.332;9.404;2023-11-21T14:20:42;1.85;;;0.90;;
65375;SDS011;51976;47.332;9.404;2023-11-21T14:23:09;2.65;;;1.52;;
65375;SDS011;51976;47.332;9.404;2023-11-21T14:25:36;2.47;;;1.05;;
65375;SDS011;51976;47.332;9.404;2023-11-21T14:28:03;1.60;;;0.90;;
65375;SDS011;51976;47.332;9.404;2023-11-21T14:30:31;1.73;;;0.70;;
65375;SDS011;51976;47.332;9.404;2023-11-21T14:32:58;1.15;;;0.43;;
65375;SDS011;51976;47.332;9.404;2023-11-21T14:35:24;0.85;;;0.30;;
65375;SDS011;51976;47.332;9.404;2023-11-21T14:37:50;0.73;;;0.43;;
65375;SDS011;51976;47.332;9.404;2023-11-21T14:40:16;0.15;;;0.10;;
65375;SDS011;51976;47.332;9.404;2023-11-21T14:42:42;0.98;;;0.50;;
65375;SDS011;51976;47.332;9.404;2023-11-21T14:45:08;0.73;;;0.40;;
65375;SDS011;51976;47.332;9.404;2023-11-21T14:47:37;1.23;;;0.40;;
65375;SDS011;51976;47.332;9.404;2023-11-21T14:50:03;0.65;;;0.50;;
65375;SDS011;51976;47.332;9.404;2023-11-21T14:52:48;1.00;;;0.30;;
65375;SDS011;51976;47.332;9.404;2023-11-21T14:55:24;0.40;;;0.20;;